Pagrindinis puslapis
METAR-TAF:

METAR-TAF

Oro uostai :

Jonšiopingas, Švedija

platuma: 57-46N, ilguma: 014-05E, Aukštis: 226 m

Dabartinis oras

Ataskaita buvo paskelbta 20 minutes, ne 03:50 UTC
Vėjas 4 kt iš Šiaurės
Temperatūra 12°C
Drėgmė 100%
Slėgis 1014 hPa
Matomumas: 7000 m
lietus

METAR: ESGJ 250350Z AUTO 35004KT 7000 -RA ///028 12/12 Q1014 REDZ

Laikas: 06:10 (04:10 UTC)

Prognozė

Ataskaita buvo paskelbta 40 minutes, ne 03:30 UTC
Prognozė galioja nuo 25 metu 04 UTC su 25 metu 12 UTC
Vėjas 5 kt iš Šiaurės Vakarų
Matomumas 10 km arba daugiau
Su prošvaistėmis ne aukštis 3000 ft
Laikinai
nuo 25 metu 04 UTC su 25 metu 08 UTC
Su prošvaistėmis ne aukštis 3500 ft, Liūtiniai kamuoliniai debesys.
lietus

TAF: ESGJ 250330Z 2504/2512 32005KT 9999 BKN030 TEMPO 2504/2508 SHRA BKN035CB

Orai ataskaitas ir orų prognozės (METAR, TAF).

turimą stotys yra geltonos ir raudonos taškus žemėlapyje.

Perkelti pele per norėdami pamatyti stoties vardą.

Tada spustelėkite, norėdami matyti oro stebėjimo ir prognozės.

Norėdami pakeisti žemėlapį: spustelėkite ant žalios mygtukų su juodo kryžiaus žemyn,; žalią mygtuką su brūkšneliu, jei norite nutolinti; arba žalių rodyklių gretimoms žemėlapius.


METAR-TAF: